MDT,Max TemperatureF,Mean TemperatureF,Min TemperatureF,Max Dew PointF,MeanDew PointF,Min DewpointF,Max Humidity, Mean Humidity, Min Humidity, Max Sea Level PressureIn, Mean Sea Level PressureIn, Min Sea Level PressureIn, Max VisibilityMiles, Mean VisibilityMiles, Min VisibilityMiles, Max Wind SpeedMPH, Mean Wind SpeedMPH, Max Gust SpeedMPH,PrecipitationIn, CloudCover, Events, WindDirDegrees
2012-9-1,77,68,60,59,56,50,94,73,44,30.17,30.11,30.04,15,12,3,29,8,52,0.23,4,Thunderstorm,115
2012-9-2,84,70,55,59,53,45,94,66,25,30.21,30.14,30.07,15,12,10,15,5,,0.00,2,,349
2012-9-3,89,73,57,55,47,32,72,50,14,30.20,30.14,30.08,15,13,10,10,3,,0.00,2,,113
2012-9-4,87,70,53,52,39,28,67,40,15,30.18,30.13,30.09,15,12,10,10,5,,0.00,0,,119
2012-9-5,87,69,51,54,41,34,62,41,15,30.19,30.12,30.03,15,12,10,8,5,,0.00,0,,138
2012-9-6,87,74,60,57,45,37,77,49,26,30.16,30.07,29.98,15,12,10,18,6,,0.00,2,Rain-Thunderstorm,128
2012-9-7,78,64,51,55,49,39,88,66,30,30.30,30.23,30.18,15,12,10,10,4,14,0.00,0,,129
2012-9-8,82,66,50,54,42,30,72,47,15,30.35,30.26,30.17,15,12,10,8,4,,0.00,0,,121
2012-9-9,89,71,53,52,40,36,58,39,16,30.22,30.14,30.01,16,12,5,10,5,17,0.00,1,,132
2012-9-10,86,73,60,55,47,39,68,45,25,30.09,30.04,29.96,15,12,10,23,7,34,0.00,3,Thunderstorm,134
2012-9-11,75,68,60,55,52,46,77,61,41,30.12,30.06,30.03,15,12,7,15,7,,0.00,3,,182
2012-9-12,75,63,51,52,41,27,82,53,17,30.32,30.21,30.12,15,12,10,14,4,,0.00,0,,69
2012-9-13,75,60,44,45,35,27,66,48,27,30.46,30.39,30.33,15,12,8,9,4,,0.00,0,,126
2012-9-14,80,63,46,48,40,32,71,51,23,30.41,30.33,30.23,15,12,8,12,3,,0.00,0,,155
2012-9-15,86,68,51,48,37,32,58,42,14,30.32,30.26,30.14,15,12,10,9,4,,0.00,1,,115
2012-9-16,84,68,51,54,37,30,67,38,14,30.22,30.13,30.06,15,12,10,10,5,,0.00,1,,92
2012-9-17,77,66,55,45,39,32,51,38,24,30.21,30.14,30.08,15,11,10,14,9,18,0.00,1,,298
2012-9-18,77,60,44,46,38,30,67,53,18,30.31,30.23,30.17,10,9,6,7,3,,0.00,0,,121
2012-9-19,78,61,44,46,39,34,71,52,23,30.28,30.22,30.16,15,11,10,9,3,,0.00,1,,348
2012-9-20,78,62,46,45,38,34,71,50,20,30.27,30.21,30.15,15,12,10,9,2,,0.00,0,,140
2012-9-21,82,63,44,55,39,30,76,50,15,30.25,30.19,30.10,15,11,10,9,3,,0.00,0,,132
2012-9-22,84,64,44,57,39,30,66,47,27,30.23,30.15,30.09,15,12,10,9,3,,0.00,1,,140
2012-9-23,80,70,59,50,42,36,63,42,26,30.16,30.11,30.05,15,12,9,12,4,21,0.04,4,,108
2012-9-24,69,62,53,54,49,45,82,61,40,30.15,30.08,30.03,15,12,10,15,7,22,0.00,6,,271
2012-9-25,60,56,51,50,48,45,94,80,55,30.10,30.09,30.06,15,11,10,12,5,,0.29,7,,124
2012-9-26,69,60,50,54,49,46,94,76,43,30.15,30.11,30.08,15,12,10,8,3,,0.06,3,,151
2012-9-27,71,60,50,52,48,45,88,70,43,30.23,30.17,30.13,15,12,10,8,3,,0.00,2,,149
2012-9-28,75,62,50,52,46,39,82,63,27,30.20,30.14,30.06,15,12,10,12,3,,0.00,0,,138
2012-9-29,78,62,46,52,44,39,82,62,24,30.23,30.18,30.12,15,12,10,8,2,,0.00,1,,156
2012-9-30,77,62,48,45,40,36,82,56,26,30.31,30.26,30.22,15,12,10,12,3,,0.00,0,,118